sensor_id;sensor_type;location;lat;lon;timestamp;P1;durP1;ratioP1;P2;durP2;ratioP2
18905;SDS011;9585;51.018;4.282;2023-07-31T00:00:42;12.70;;;4.90;;
18905;SDS011;9585;51.018;4.282;2023-07-31T00:03:19;12.13;;;4.28;;
18905;SDS011;9585;51.018;4.282;2023-07-31T00:05:48;7.70;;;4.28;;
18905;SDS011;9585;51.018;4.282;2023-07-31T00:08:19;9.10;;;4.15;;
18905;SDS011;9585;51.018;4.282;2023-07-31T00:11:05;11.60;;;4.40;;
18905;SDS011;9585;51.018;4.282;2023-07-31T00:13:36;12.57;;;4.22;;
18905;SDS011;9585;51.018;4.282;2023-07-31T00:16:07;11.70;;;4.28;;
18905;SDS011;9585;51.018;4.282;2023-07-31T00:18:36;10.02;;;4.30;;
18905;SDS011;9585;51.018;4.282;2023-07-31T00:21:15;11.18;;;4.55;;
18905;SDS011;9585;51.018;4.282;2023-07-31T00:23:45;10.07;;;4.35;;
18905;SDS011;9585;51.018;4.282;2023-07-31T00:26:13;13.05;;;4.40;;
18905;SDS011;9585;51.018;4.282;2023-07-31T00:28:43;12.77;;;4.72;;
18905;SDS011;9585;51.018;4.282;2023-07-31T00:31:15;11.85;;;4.50;;
18905;SDS011;9585;51.018;4.282;2023-07-31T00:33:43;10.38;;;4.40;;
18905;SDS011;9585;51.018;4.282;2023-07-31T00:36:12;11.27;;;4.53;;
18905;SDS011;9585;51.018;4.282;2023-07-31T00:38:53;12.88;;;4.30;;
18905;SDS011;9585;51.018;4.282;2023-07-31T00:41:26;9.32;;;4.30;;
18905;SDS011;9585;51.018;4.282;2023-07-31T00:43:58;12.50;;;4.10;;
18905;SDS011;9585;51.018;4.282;2023-07-31T00:46:29;7.85;;;4.40;;
18905;SDS011;9585;51.018;4.282;2023-07-31T00:49:13;8.07;;;4.22;;
18905;SDS011;9585;51.018;4.282;2023-07-31T00:51:42;8.80;;;4.63;;
18905;SDS011;9585;51.018;4.282;2023-07-31T00:54:15;12.40;;;4.65;;
18905;SDS011;9585;51.018;4.282;2023-07-31T00:56:46;14.32;;;5.20;;
18905;SDS011;9585;51.018;4.282;2023-07-31T00:59:19;13.23;;;4.85;;
18905;SDS011;9585;51.018;4.282;2023-07-31T01:01:52;9.20;;;3.83;;
18905;SDS011;9585;51.018;4.282;2023-07-31T01:04:31;10.38;;;4.50;;
18905;SDS011;9585;51.018;4.282;2023-07-31T01:07:04;12.35;;;4.63;;
18905;SDS011;9585;51.018;4.282;2023-07-31T01:09:55;9.82;;;4.13;;
18905;SDS011;9585;51.018;4.282;2023-07-31T01:12:32;11.82;;;4.53;;
18905;SDS011;9585;51.018;4.282;2023-07-31T01:15:04;10.98;;;4.28;;
18905;SDS011;9585;51.018;4.282;2023-07-31T01:17:39;10.65;;;4.35;;
18905;SDS011;9585;51.018;4.282;2023-07-31T01:20:09;10.10;;;4.20;;
18905;SDS011;9585;51.018;4.282;2023-07-31T01:28:44;12.55;;;4.65;;
18905;SDS011;9585;51.018;4.282;2023-07-31T01:31:29;11.23;;;4.40;;
18905;SDS011;9585;51.018;4.282;2023-07-31T01:33:59;13.20;;;4.47;;
18905;SDS011;9585;51.018;4.282;2023-07-31T01:39:24;12.75;;;4.60;;
18905;SDS011;9585;51.018;4.282;2023-07-31T01:42:00;11.45;;;3.83;;
18905;SDS011;9585;51.018;4.282;2023-07-31T01:44:30;10.73;;;4.28;;
18905;SDS011;9585;51.018;4.282;2023-07-31T01:46:58;10.40;;;4.15;;
18905;SDS011;9585;51.018;4.282;2023-07-31T01:49:35;10.00;;;4.35;;
18905;SDS011;9585;51.018;4.282;2023-07-31T01:52:14;9.60;;;4.28;;
18905;SDS011;9585;51.018;4.282;2023-07-31T01:54:46;10.05;;;4.35;;
18905;SDS011;9585;51.018;4.282;2023-07-31T01:57:21;12.75;;;4.78;;
18905;SDS011;9585;51.018;4.282;2023-07-31T02:02:28;7.65;;;3.58;;
18905;SDS011;9585;51.018;4.282;2023-07-31T02:05:02;11.18;;;4.47;;
18905;SDS011;9585;51.018;4.282;2023-07-31T02:07:34;9.68;;;4.25;;
18905;SDS011;9585;51.018;4.282;2023-07-31T02:10:03;8.73;;;4.45;;
18905;SDS011;9585;51.018;4.282;2023-07-31T02:12:38;13.30;;;4.90;;
18905;SDS011;9585;51.018;4.282;2023-07-31T02:15:06;13.25;;;4.53;;
18905;SDS011;9585;51.018;4.282;2023-07-31T02:17:34;7.30;;;3.65;;
18905;SDS011;9585;51.018;4.282;2023-07-31T02:20:05;9.32;;;3.70;;
18905;SDS011;9585;51.018;4.282;2023-07-31T02:22:33;9.63;;;4.22;;
18905;SDS011;9585;51.018;4.282;2023-07-31T02:25:01;11.60;;;4.25;;
18905;SDS011;9585;51.018;4.282;2023-07-31T02:27:45;11.75;;;4.13;;
18905;SDS011;9585;51.018;4.282;2023-07-31T02:30:13;12.23;;;4.35;;
18905;SDS011;9585;51.018;4.282;2023-07-31T02:32:40;12.98;;;4.47;;
18905;SDS011;9585;51.018;4.282;2023-07-31T02:35:08;11.35;;;4.45;;
18905;SDS011;9585;51.018;4.282;2023-07-31T02:37:40;11.43;;;3.85;;
18905;SDS011;9585;51.018;4.282;2023-07-31T02:40:08;11.13;;;4.45;;
18905;SDS011;9585;51.018;4.282;2023-07-31T02:42:38;12.18;;;4.18;;
18905;SDS011;9585;51.018;4.282;2023-07-31T02:45:07;12.07;;;4.38;;
18905;SDS011;9585;51.018;4.282;2023-07-31T02:47:38;8.15;;;4.07;;
18905;SDS011;9585;51.018;4.282;2023-07-31T02:50:06;9.00;;;4.18;;
18905;SDS011;9585;51.018;4.282;2023-07-31T02:52:37;12.95;;;3.95;;
18905;SDS011;9585;51.018;4.282;2023-07-31T02:55:10;11.18;;;4.30;;
18905;SDS011;9585;51.018;4.282;2023-07-31T02:57:39;8.02;;;4.10;;
18905;SDS011;9585;51.018;4.282;2023-07-31T03:00:09;10.27;;;4.15;;
18905;SDS011;9585;51.018;4.282;2023-07-31T03:02:40;11.30;;;4.35;;
18905;SDS011;9585;51.018;4.282;2023-07-31T03:05:07;10.80;;;4.63;;
18905;SDS011;9585;51.018;4.282;2023-07-31T03:07:35;8.07;;;4.15;;
18905;SDS011;9585;51.018;4.282;2023-07-31T03:10:06;13.45;;;4.80;;
18905;SDS011;9585;51.018;4.282;2023-07-31T03:12:47;9.55;;;4.30;;
18905;SDS011;9585;51.018;4.282;2023-07-31T03:15:15;11.85;;;4.97;;
18905;SDS011;9585;51.018;4.282;2023-07-31T03:17:42;9.13;;;4.90;;
18905;SDS011;9585;51.018;4.282;2023-07-31T03:20:14;12.48;;;4.78;;
18905;SDS011;9585;51.018;4.282;2023-07-31T03:22:45;12.23;;;5.07;;
18905;SDS011;9585;51.018;4.282;2023-07-31T03:25:21;10.63;;;4.68;;
18905;SDS011;9585;51.018;4.282;2023-07-31T03:27:51;7.90;;;4.57;;
18905;SDS011;9585;51.018;4.282;2023-07-31T03:30:19;9.95;;;4.68;;
18905;SDS011;9585;51.018;4.282;2023-07-31T03:32:49;10.15;;;4.38;;
18905;SDS011;9585;51.018;4.282;2023-07-31T03:35:16;8.70;;;3.85;;
18905;SDS011;9585;51.018;4.282;2023-07-31T03:37:58;9.68;;;4.13;;
18905;SDS011;9585;51.018;4.282;2023-07-31T03:40:25;7.68;;;4.20;;
18905;SDS011;9585;51.018;4.282;2023-07-31T03:42:55;7.75;;;4.18;;
18905;SDS011;9585;51.018;4.282;2023-07-31T03:45:23;5.55;;;3.83;;
18905;SDS011;9585;51.018;4.282;2023-07-31T03:47:51;7.30;;;3.92;;
18905;SDS011;9585;51.018;4.282;2023-07-31T03:50:22;6.28;;;3.78;;
18905;SDS011;9585;51.018;4.282;2023-07-31T03:52:50;7.70;;;3.80;;
18905;SDS011;9585;51.018;4.282;2023-07-31T03:55:17;8.65;;;4.13;;
18905;SDS011;9585;51.018;4.282;2023-07-31T03:57:47;6.43;;;3.63;;
18905;SDS011;9585;51.018;4.282;2023-07-31T04:00:27;7.40;;;4.00;;
18905;SDS011;9585;51.018;4.282;2023-07-31T04:02:55;6.75;;;3.88;;
18905;SDS011;9585;51.018;4.282;2023-07-31T04:05:23;5.53;;;3.88;;
18905;SDS011;9585;51.018;4.282;2023-07-31T04:07:51;7.57;;;3.80;;
18905;SDS011;9585;51.018;4.282;2023-07-31T04:10:21;6.95;;;4.13;;
18905;SDS011;9585;51.018;4.282;2023-07-31T04:12:50;6.65;;;3.90;;
18905;SDS011;9585;51.018;4.282;2023-07-31T04:15:18;8.30;;;3.88;;
18905;SDS011;9585;51.018;4.282;2023-07-31T04:17:47;6.32;;;3.92;;
18905;SDS011;9585;51.018;4.282;2023-07-31T04:20:15;7.35;;;3.92;;
18905;SDS011;9585;51.018;4.282;2023-07-31T04:22:43;5.75;;;3.63;;
18905;SDS011;9585;51.018;4.282;2023-07-31T04:25:11;6.05;;;3.55;;
18905;SDS011;9585;51.018;4.282;2023-07-31T04:27:39;5.78;;;3.72;;
18905;SDS011;9585;51.018;4.282;2023-07-31T04:30:07;5.53;;;3.53;;
18905;SDS011;9585;51.018;4.282;2023-07-31T04:32:35;6.10;;;4.13;;
18905;SDS011;9585;51.018;4.282;2023-07-31T04:35:05;6.78;;;3.78;;
18905;SDS011;9585;51.018;4.282;2023-07-31T04:37:35;4.78;;;3.65;;
18905;SDS011;9585;51.018;4.282;2023-07-31T04:40:06;5.07;;;3.90;;
18905;SDS011;9585;51.018;4.282;2023-07-31T04:42:35;4.65;;;3.92;;
18905;SDS011;9585;51.018;4.282;2023-07-31T04:45:03;7.63;;;4.18;;
18905;SDS011;9585;51.018;4.282;2023-07-31T04:47:32;5.53;;;3.88;;
18905;SDS011;9585;51.018;4.282;2023-07-31T04:50:02;7.97;;;3.67;;
18905;SDS011;9585;51.018;4.282;2023-07-31T04:52:38;7.63;;;4.15;;
18905;SDS011;9585;51.018;4.282;2023-07-31T04:55:07;5.28;;;3.70;;
18905;SDS011;9585;51.018;4.282;2023-07-31T04:57:36;6.72;;;4.30;;
18905;SDS011;9585;51.018;4.282;2023-07-31T05:00:08;6.35;;;4.22;;
18905;SDS011;9585;51.018;4.282;2023-07-31T05:02:36;6.43;;;3.97;;
18905;SDS011;9585;51.018;4.282;2023-07-31T05:05:14;6.38;;;4.10;;
18905;SDS011;9585;51.018;4.282;2023-07-31T05:07:42;6.65;;;4.20;;
18905;SDS011;9585;51.018;4.282;2023-07-31T05:10:10;5.57;;;3.85;;
18905;SDS011;9585;51.018;4.282;2023-07-31T05:12:38;7.18;;;4.00;;
18905;SDS011;9585;51.018;4.282;2023-07-31T05:15:06;7.43;;;4.38;;
18905;SDS011;9585;51.018;4.282;2023-07-31T05:17:37;5.68;;;4.03;;
18905;SDS011;9585;51.018;4.282;2023-07-31T05:20:05;5.72;;;4.00;;
18905;SDS011;9585;51.018;4.282;2023-07-31T05:22:36;7.88;;;4.38;;
18905;SDS011;9585;51.018;4.282;2023-07-31T05:25:03;7.30;;;4.45;;
18905;SDS011;9585;51.018;4.282;2023-07-31T05:27:32;7.78;;;4.03;;
18905;SDS011;9585;51.018;4.282;2023-07-31T05:30:00;5.88;;;3.92;;
18905;SDS011;9585;51.018;4.282;2023-07-31T05:32:27;5.85;;;3.85;;
18905;SDS011;9585;51.018;4.282;2023-07-31T05:34:55;10.38;;;4.50;;
18905;SDS011;9585;51.018;4.282;2023-07-31T05:37:23;5.95;;;4.30;;
18905;SDS011;9585;51.018;4.282;2023-07-31T05:39:53;6.32;;;4.20;;
18905;SDS011;9585;51.018;4.282;2023-07-31T05:42:21;7.68;;;4.05;;
18905;SDS011;9585;51.018;4.282;2023-07-31T05:44:49;6.50;;;4.05;;
18905;SDS011;9585;51.018;4.282;2023-07-31T05:47:20;5.35;;;4.00;;
18905;SDS011;9585;51.018;4.282;2023-07-31T05:49:48;6.07;;;4.15;;
18905;SDS011;9585;51.018;4.282;2023-07-31T05:52:18;9.18;;;3.90;;
18905;SDS011;9585;51.018;4.282;2023-07-31T05:54:46;7.95;;;4.28;;
18905;SDS011;9585;51.018;4.282;2023-07-31T05:57:17;5.20;;;3.90;;
18905;SDS011;9585;51.018;4.282;2023-07-31T05:59:45;7.43;;;4.60;;
18905;SDS011;9585;51.018;4.282;2023-07-31T06:02:14;8.73;;;4.40;;
18905;SDS011;9585;51.018;4.282;2023-07-31T06:04:41;6.22;;;3.83;;
18905;SDS011;9585;51.018;4.282;2023-07-31T06:07:09;6.68;;;3.90;;
18905;SDS011;9585;51.018;4.282;2023-07-31T06:09:37;6.40;;;4.03;;
18905;SDS011;9585;51.018;4.282;2023-07-31T06:12:05;5.50;;;3.30;;
18905;SDS011;9585;51.018;4.282;2023-07-31T06:14:36;7.30;;;3.60;;
18905;SDS011;9585;51.018;4.282;2023-07-31T06:17:04;6.93;;;3.45;;
18905;SDS011;9585;51.018;4.282;2023-07-31T06:19:32;5.72;;;3.60;;
18905;SDS011;9585;51.018;4.282;2023-07-31T06:22:00;5.20;;;3.45;;
18905;SDS011;9585;51.018;4.282;2023-07-31T06:24:28;6.03;;;3.40;;
18905;SDS011;9585;51.018;4.282;2023-07-31T06:26:56;8.40;;;3.92;;
18905;SDS011;9585;51.018;4.282;2023-07-31T06:29:28;8.35;;;3.42;;
18905;SDS011;9585;51.018;4.282;2023-07-31T06:31:58;4.70;;;3.40;;
18905;SDS011;9585;51.018;4.282;2023-07-31T06:34:26;5.05;;;3.20;;
18905;SDS011;9585;51.018;4.282;2023-07-31T06:36:54;6.07;;;3.58;;
18905;SDS011;9585;51.018;4.282;2023-07-31T06:39:23;8.55;;;3.67;;
18905;SDS011;9585;51.018;4.282;2023-07-31T06:41:51;4.07;;;3.20;;
18905;SDS011;9585;51.018;4.282;2023-07-31T06:44:19;6.35;;;3.55;;
18905;SDS011;9585;51.018;4.282;2023-07-31T06:46:47;6.13;;;3.47;;
18905;SDS011;9585;51.018;4.282;2023-07-31T06:49:17;5.85;;;3.20;;
18905;SDS011;9585;51.018;4.282;2023-07-31T06:51:44;7.82;;;3.75;;
18905;SDS011;9585;51.018;4.282;2023-07-31T06:54:12;7.55;;;3.53;;
18905;SDS011;9585;51.018;4.282;2023-07-31T06:56:43;6.32;;;3.25;;
18905;SDS011;9585;51.018;4.282;2023-07-31T06:59:10;6.38;;;3.28;;
18905;SDS011;9585;51.018;4.282;2023-07-31T07:01:38;7.60;;;3.70;;
18905;SDS011;9585;51.018;4.282;2023-07-31T07:04:06;5.07;;;3.47;;
18905;SDS011;9585;51.018;4.282;2023-07-31T07:06:36;7.63;;;3.67;;
18905;SDS011;9585;51.018;4.282;2023-07-31T07:09:04;6.10;;;2.90;;
18905;SDS011;9585;51.018;4.282;2023-07-31T07:11:33;5.35;;;2.83;;
18905;SDS011;9585;51.018;4.282;2023-07-31T07:14:05;5.35;;;2.83;;
18905;SDS011;9585;51.018;4.282;2023-07-31T07:16:33;5.40;;;2.63;;
18905;SDS011;9585;51.018;4.282;2023-07-31T07:19:01;4.57;;;2.88;;
18905;SDS011;9585;51.018;4.282;2023-07-31T07:21:29;5.57;;;3.30;;
18905;SDS011;9585;51.018;4.282;2023-07-31T07:23:58;5.93;;;3.33;;
18905;SDS011;9585;51.018;4.282;2023-07-31T07:26:29;5.30;;;3.40;;
18905;SDS011;9585;51.018;4.282;2023-07-31T07:28:57;5.28;;;3.13;;
18905;SDS011;9585;51.018;4.282;2023-07-31T07:31:27;6.53;;;2.90;;
18905;SDS011;9585;51.018;4.282;2023-07-31T07:33:55;6.45;;;3.05;;
18905;SDS011;9585;51.018;4.282;2023-07-31T07:36:22;6.35;;;2.92;;
18905;SDS011;9585;51.018;4.282;2023-07-31T07:38:50;5.20;;;3.30;;
18905;SDS011;9585;51.018;4.282;2023-07-31T07:41:20;6.35;;;3.10;;
18905;SDS011;9585;51.018;4.282;2023-07-31T07:43:49;6.95;;;3.00;;
18905;SDS011;9585;51.018;4.282;2023-07-31T07:46:19;5.15;;;3.00;;
18905;SDS011;9585;51.018;4.282;2023-07-31T07:48:49;5.55;;;3.00;;
18905;SDS011;9585;51.018;4.282;2023-07-31T07:51:20;4.88;;;2.70;;
18905;SDS011;9585;51.018;4.282;2023-07-31T07:53:48;5.85;;;3.38;;
18905;SDS011;9585;51.018;4.282;2023-07-31T07:56:18;4.38;;;3.13;;
18905;SDS011;9585;51.018;4.282;2023-07-31T07:58:48;5.13;;;3.00;;
18905;SDS011;9585;51.018;4.282;2023-07-31T08:01:18;6.60;;;3.22;;
18905;SDS011;9585;51.018;4.282;2023-07-31T08:03:46;4.68;;;2.72;;
18905;SDS011;9585;51.018;4.282;2023-07-31T08:06:14;4.70;;;2.90;;
18905;SDS011;9585;51.018;4.282;2023-07-31T08:08:42;4.38;;;2.80;;
18905;SDS011;9585;51.018;4.282;2023-07-31T08:11:12;4.93;;;2.78;;
18905;SDS011;9585;51.018;4.282;2023-07-31T08:13:47;5.00;;;2.90;;
18905;SDS011;9585;51.018;4.282;2023-07-31T08:16:17;5.80;;;2.80;;
18905;SDS011;9585;51.018;4.282;2023-07-31T08:18:51;5.90;;;2.95;;
18905;SDS011;9585;51.018;4.282;2023-07-31T08:21:21;6.03;;;2.92;;
18905;SDS011;9585;51.018;4.282;2023-07-31T08:23:49;4.63;;;2.95;;
18905;SDS011;9585;51.018;4.282;2023-07-31T08:26:19;3.75;;;2.63;;
18905;SDS011;9585;51.018;4.282;2023-07-31T08:28:49;6.00;;;2.65;;
18905;SDS011;9585;51.018;4.282;2023-07-31T08:31:17;4.65;;;2.67;;
18905;SDS011;9585;51.018;4.282;2023-07-31T08:33:45;5.00;;;2.47;;
18905;SDS011;9585;51.018;4.282;2023-07-31T08:36:12;4.78;;;2.63;;
18905;SDS011;9585;51.018;4.282;2023-07-31T08:38:40;5.28;;;2.40;;
18905;SDS011;9585;51.018;4.282;2023-07-31T08:41:08;4.70;;;2.25;;
18905;SDS011;9585;51.018;4.282;2023-07-31T08:43:36;4.85;;;2.67;;
18905;SDS011;9585;51.018;4.282;2023-07-31T08:46:07;4.47;;;2.28;;
18905;SDS011;9585;51.018;4.282;2023-07-31T08:48:35;6.85;;;2.75;;
18905;SDS011;9585;51.018;4.282;2023-07-31T08:51:07;4.63;;;2.60;;
18905;SDS011;9585;51.018;4.282;2023-07-31T08:53:37;5.43;;;2.67;;
18905;SDS011;9585;51.018;4.282;2023-07-31T08:56:05;7.03;;;2.83;;
18905;SDS011;9585;51.018;4.282;2023-07-31T08:58:34;4.60;;;2.60;;
18905;SDS011;9585;51.018;4.282;2023-07-31T09:01:07;3.47;;;2.60;;
18905;SDS011;9585;51.018;4.282;2023-07-31T09:03:41;5.03;;;2.90;;
18905;SDS011;9585;51.018;4.282;2023-07-31T09:06:10;5.20;;;2.50;;
18905;SDS011;9585;51.018;4.282;2023-07-31T09:08:41;5.57;;;2.78;;
18905;SDS011;9585;51.018;4.282;2023-07-31T09:11:09;4.47;;;2.55;;
18905;SDS011;9585;51.018;4.282;2023-07-31T09:13:39;4.85;;;2.85;;
18905;SDS011;9585;51.018;4.282;2023-07-31T09:16:10;4.88;;;2.70;;
18905;SDS011;9585;51.018;4.282;2023-07-31T09:18:52;5.40;;;3.03;;
18905;SDS011;9585;51.018;4.282;2023-07-31T09:21:22;3.97;;;2.72;;
18905;SDS011;9585;51.018;4.282;2023-07-31T09:23:51;3.75;;;2.85;;
18905;SDS011;9585;51.018;4.282;2023-07-31T09:26:29;5.70;;;3.00;;
18905;SDS011;9585;51.018;4.282;2023-07-31T09:28:58;6.32;;;3.00;;
18905;SDS011;9585;51.018;4.282;2023-07-31T09:31:33;5.63;;;2.83;;
18905;SDS011;9585;51.018;4.282;2023-07-31T09:34:07;5.53;;;3.05;;
18905;SDS011;9585;51.018;4.282;2023-07-31T09:36:39;4.88;;;3.10;;
18905;SDS011;9585;51.018;4.282;2023-07-31T09:39:08;5.82;;;3.78;;
18905;SDS011;9585;51.018;4.282;2023-07-31T09:41:38;5.20;;;3.30;;
18905;SDS011;9585;51.018;4.282;2023-07-31T09:44:09;7.15;;;3.13;;
18905;SDS011;9585;51.018;4.282;2023-07-31T09:46:41;6.30;;;3.05;;
18905;SDS011;9585;51.018;4.282;2023-07-31T09:49:10;5.38;;;3.15;;
18905;SDS011;9585;51.018;4.282;2023-07-31T09:51:39;3.58;;;2.70;;
18905;SDS011;9585;51.018;4.282;2023-07-31T09:54:11;5.32;;;3.30;;
18905;SDS011;9585;51.018;4.282;2023-07-31T09:56:41;5.45;;;2.97;;
18905;SDS011;9585;51.018;4.282;2023-07-31T09:59:14;3.80;;;2.55;;
18905;SDS011;9585;51.018;4.282;2023-07-31T10:01:45;3.63;;;2.80;;
18905;SDS011;9585;51.018;4.282;2023-07-31T10:04:15;3.20;;;2.50;;
18905;SDS011;9585;51.018;4.282;2023-07-31T10:06:53;5.45;;;2.60;;
18905;SDS011;9585;51.018;4.282;2023-07-31T10:09:22;3.47;;;2.50;;
18905;SDS011;9585;51.018;4.282;2023-07-31T10:11:59;5.10;;;2.85;;
18905;SDS011;9585;51.018;4.282;2023-07-31T10:14:29;3.90;;;3.00;;
18905;SDS011;9585;51.018;4.282;2023-07-31T10:17:03;4.72;;;3.03;;
18905;SDS011;9585;51.018;4.282;2023-07-31T10:19:32;6.75;;;3.03;;
18905;SDS011;9585;51.018;4.282;2023-07-31T10:22:02;5.78;;;2.85;;
18905;SDS011;9585;51.018;4.282;2023-07-31T10:24:32;4.10;;;2.83;;
18905;SDS011;9585;51.018;4.282;2023-07-31T10:27:00;4.95;;;3.40;;
18905;SDS011;9585;51.018;4.282;2023-07-31T10:29:29;5.28;;;3.50;;
18905;SDS011;9585;51.018;4.282;2023-07-31T10:32:06;4.75;;;3.35;;
18905;SDS011;9585;51.018;4.282;2023-07-31T10:34:38;5.45;;;3.47;;
18905;SDS011;9585;51.018;4.282;2023-07-31T10:37:19;5.38;;;3.60;;
18905;SDS011;9585;51.018;4.282;2023-07-31T10:39:55;5.45;;;3.58;;
18905;SDS011;9585;51.018;4.282;2023-07-31T10:42:29;7.97;;;3.88;;
18905;SDS011;9585;51.018;4.282;2023-07-31T10:44:58;5.68;;;3.85;;
18905;SDS011;9585;51.018;4.282;2023-07-31T10:47:29;7.68;;;4.07;;
18905;SDS011;9585;51.018;4.282;2023-07-31T10:52:49;5.75;;;3.83;;
18905;SDS011;9585;51.018;4.282;2023-07-31T10:55:29;7.53;;;4.30;;
18905;SDS011;9585;51.018;4.282;2023-07-31T10:58:00;6.65;;;4.00;;
18905;SDS011;9585;51.018;4.282;2023-07-31T11:00:33;5.43;;;3.55;;
18905;SDS011;9585;51.018;4.282;2023-07-31T11:03:09;5.72;;;3.92;;
18905;SDS011;9585;51.018;4.282;2023-07-31T11:05:47;7.80;;;4.20;;
18905;SDS011;9585;51.018;4.282;2023-07-31T11:08:28;4.65;;;3.72;;
18905;SDS011;9585;51.018;4.282;2023-07-31T11:11:07;6.97;;;3.92;;
18905;SDS011;9585;51.018;4.282;2023-07-31T11:13:39;5.22;;;3.88;;
18905;SDS011;9585;51.018;4.282;2023-07-31T11:16:08;6.82;;;3.95;;
18905;SDS011;9585;51.018;4.282;2023-07-31T11:18:42;7.28;;;4.30;;
18905;SDS011;9585;51.018;4.282;2023-07-31T11:21:12;6.97;;;3.97;;
18905;SDS011;9585;51.018;4.282;2023-07-31T11:23:45;6.65;;;4.13;;
18905;SDS011;9585;51.018;4.282;2023-07-31T11:26:15;6.15;;;3.72;;
18905;SDS011;9585;51.018;4.282;2023-07-31T11:28:46;7.30;;;4.10;;
18905;SDS011;9585;51.018;4.282;2023-07-31T11:31:15;5.97;;;3.83;;
18905;SDS011;9585;51.018;4.282;2023-07-31T11:33:49;7.47;;;4.30;;
18905;SDS011;9585;51.018;4.282;2023-07-31T11:36:17;7.18;;;4.15;;
18905;SDS011;9585;51.018;4.282;2023-07-31T11:38:46;6.78;;;3.70;;
18905;SDS011;9585;51.018;4.282;2023-07-31T11:41:20;4.97;;;3.63;;
18905;SDS011;9585;51.018;4.282;2023-07-31T11:43:48;6.50;;;3.78;;
18905;SDS011;9585;51.018;4.282;2023-07-31T11:46:27;5.60;;;4.05;;
18905;SDS011;9585;51.018;4.282;2023-07-31T11:49:01;8.50;;;3.85;;
18905;SDS011;9585;51.018;4.282;2023-07-31T11:51:29;6.75;;;3.80;;
18905;SDS011;9585;51.018;4.282;2023-07-31T11:54:00;6.43;;;4.05;;
18905;SDS011;9585;51.018;4.282;2023-07-31T11:56:29;6.63;;;4.05;;
18905;SDS011;9585;51.018;4.282;2023-07-31T11:58:58;6.60;;;3.95;;
18905;SDS011;9585;51.018;4.282;2023-07-31T12:01:35;8.50;;;4.22;;
18905;SDS011;9585;51.018;4.282;2023-07-31T12:04:06;7.55;;;4.00;;
18905;SDS011;9585;51.018;4.282;2023-07-31T12:06:34;8.40;;;4.13;;
18905;SDS011;9585;51.018;4.282;2023-07-31T12:09:03;6.97;;;3.58;;
18905;SDS011;9585;51.018;4.282;2023-07-31T12:11:31;7.40;;;3.92;;
18905;SDS011;9585;51.018;4.282;2023-07-31T12:14:22;6.90;;;4.03;;
18905;SDS011;9585;51.018;4.282;2023-07-31T12:16:53;6.53;;;3.85;;
18905;SDS011;9585;51.018;4.282;2023-07-31T12:19:24;8.32;;;3.90;;
18905;SDS011;9585;51.018;4.282;2023-07-31T12:21:53;8.07;;;3.95;;
18905;SDS011;9585;51.018;4.282;2023-07-31T12:24:22;7.57;;;3.63;;
18905;SDS011;9585;51.018;4.282;2023-07-31T12:26:50;7.47;;;3.88;;
18905;SDS011;9585;51.018;4.282;2023-07-31T12:29:21;5.93;;;3.00;;
18905;SDS011;9585;51.018;4.282;2023-07-31T12:32:01;7.72;;;3.63;;
18905;SDS011;9585;51.018;4.282;2023-07-31T12:34:31;6.30;;;3.75;;
18905;SDS011;9585;51.018;4.282;2023-07-31T12:37:10;5.90;;;3.95;;
18905;SDS011;9585;51.018;4.282;2023-07-31T12:39:39;5.95;;;3.63;;
18905;SDS011;9585;51.018;4.282;2023-07-31T12:42:08;7.20;;;4.00;;
18905;SDS011;9585;51.018;4.282;2023-07-31T12:44:37;6.85;;;3.50;;
18905;SDS011;9585;51.018;4.282;2023-07-31T12:47:05;7.90;;;3.92;;
18905;SDS011;9585;51.018;4.282;2023-07-31T12:49:35;8.25;;;3.90;;
18905;SDS011;9585;51.018;4.282;2023-07-31T12:52:03;8.75;;;3.70;;
18905;SDS011;9585;51.018;4.282;2023-07-31T12:54:31;6.15;;;3.63;;
18905;SDS011;9585;51.018;4.282;2023-07-31T12:57:00;6.75;;;3.80;;
18905;SDS011;9585;51.018;4.282;2023-07-31T12:59:28;6.50;;;3.63;;
18905;SDS011;9585;51.018;4.282;2023-07-31T13:01:56;8.70;;;3.90;;
18905;SDS011;9585;51.018;4.282;2023-07-31T13:04:24;6.07;;;3.92;;
18905;SDS011;9585;51.018;4.282;2023-07-31T13:06:57;6.55;;;3.63;;
18905;SDS011;9585;51.018;4.282;2023-07-31T13:09:25;6.80;;;3.83;;
18905;SDS011;9585;51.018;4.282;2023-07-31T13:11:55;7.50;;;3.80;;
18905;SDS011;9585;51.018;4.282;2023-07-31T13:14:26;6.45;;;3.47;;
18905;SDS011;9585;51.018;4.282;2023-07-31T13:16:57;7.88;;;3.60;;
18905;SDS011;9585;51.018;4.282;2023-07-31T13:19:24;4.60;;;3.30;;
18905;SDS011;9585;51.018;4.282;2023-07-31T13:21:54;7.68;;;3.65;;
18905;SDS011;9585;51.018;4.282;2023-07-31T13:24:22;4.53;;;2.83;;
18905;SDS011;9585;51.018;4.282;2023-07-31T13:26:50;3.92;;;2.80;;
18905;SDS011;9585;51.018;4.282;2023-07-31T13:29:18;4.88;;;2.60;;
18905;SDS011;9585;51.018;4.282;2023-07-31T13:31:47;3.88;;;2.28;;
18905;SDS011;9585;51.018;4.282;2023-07-31T13:34:14;3.22;;;2.00;;
18905;SDS011;9585;51.018;4.282;2023-07-31T13:36:47;3.28;;;2.10;;
18905;SDS011;9585;51.018;4.282;2023-07-31T13:39:16;3.83;;;2.10;;
18905;SDS011;9585;51.018;4.282;2023-07-31T13:41:44;3.78;;;2.10;;
18905;SDS011;9585;51.018;4.282;2023-07-31T13:44:12;3.72;;;1.88;;
18905;SDS011;9585;51.018;4.282;2023-07-31T13:46:40;3.78;;;2.10;;
18905;SDS011;9585;51.018;4.282;2023-07-31T13:49:13;2.72;;;2.17;;
18905;SDS011;9585;51.018;4.282;2023-07-31T13:51:41;3.55;;;2.03;;
18905;SDS011;9585;51.018;4.282;2023-07-31T13:54:09;2.00;;;1.60;;
18905;SDS011;9585;51.018;4.282;2023-07-31T13:56:40;2.22;;;1.70;;
18905;SDS011;9585;51.018;4.282;2023-07-31T13:59:08;1.77;;;1.50;;
18905;SDS011;9585;51.018;4.282;2023-07-31T14:01:37;2.80;;;1.75;;
18905;SDS011;9585;51.018;4.282;2023-07-31T14:04:05;3.38;;;1.85;;
18905;SDS011;9585;51.018;4.282;2023-07-31T14:06:33;2.47;;;1.73;;
18905;SDS011;9585;51.018;4.282;2023-07-31T14:09:03;2.90;;;2.10;;
18905;SDS011;9585;51.018;4.282;2023-07-31T14:11:31;3.88;;;2.20;;
18905;SDS011;9585;51.018;4.282;2023-07-31T14:14:01;2.53;;;2.10;;
18905;SDS011;9585;51.018;4.282;2023-07-31T14:16:29;4.93;;;2.00;;
18905;SDS011;9585;51.018;4.282;2023-07-31T14:18:59;3.55;;;2.20;;
18905;SDS011;9585;51.018;4.282;2023-07-31T14:21:30;3.80;;;2.33;;
18905;SDS011;9585;51.018;4.282;2023-07-31T14:23:58;3.70;;;2.47;;
18905;SDS011;9585;51.018;4.282;2023-07-31T14:26:31;4.60;;;2.30;;
18905;SDS011;9585;51.018;4.282;2023-07-31T14:29:01;3.60;;;2.75;;
18905;SDS011;9585;51.018;4.282;2023-07-31T14:31:29;3.97;;;2.83;;
18905;SDS011;9585;51.018;4.282;2023-07-31T14:33:57;5.18;;;2.95;;
18905;SDS011;9585;51.018;4.282;2023-07-31T14:36:25;4.60;;;2.70;;
18905;SDS011;9585;51.018;4.282;2023-07-31T14:38:55;4.30;;;2.70;;
18905;SDS011;9585;51.018;4.282;2023-07-31T14:41:23;4.85;;;2.45;;
18905;SDS011;9585;51.018;4.282;2023-07-31T14:43:51;3.22;;;2.20;;
18905;SDS011;9585;51.018;4.282;2023-07-31T14:46:20;2.78;;;2.33;;
18905;SDS011;9585;51.018;4.282;2023-07-31T14:48:54;3.78;;;2.53;;
18905;SDS011;9585;51.018;4.282;2023-07-31T14:51:22;4.63;;;2.53;;
18905;SDS011;9585;51.018;4.282;2023-07-31T14:53:50;3.55;;;2.13;;
18905;SDS011;9585;51.018;4.282;2023-07-31T14:56:18;4.07;;;2.15;;
18905;SDS011;9585;51.018;4.282;2023-07-31T14:58:46;3.22;;;2.00;;
18905;SDS011;9585;51.018;4.282;2023-07-31T15:01:13;3.80;;;2.00;;
18905;SDS011;9585;51.018;4.282;2023-07-31T15:03:44;3.58;;;1.92;;
18905;SDS011;9585;51.018;4.282;2023-07-31T15:06:13;3.75;;;2.17;;
18905;SDS011;9585;51.018;4.282;2023-07-31T15:08:41;3.50;;;1.80;;
18905;SDS011;9585;51.018;4.282;2023-07-31T15:11:09;3.30;;;1.70;;
18905;SDS011;9585;51.018;4.282;2023-07-31T15:13:37;3.08;;;1.67;;
18905;SDS011;9585;51.018;4.282;2023-07-31T15:16:05;1.85;;;1.60;;
18905;SDS011;9585;51.018;4.282;2023-07-31T15:18:33;1.88;;;1.42;;
18905;SDS011;9585;51.018;4.282;2023-07-31T15:21:02;2.08;;;1.50;;
18905;SDS011;9585;51.018;4.282;2023-07-31T15:23:34;1.65;;;1.27;;
18905;SDS011;9585;51.018;4.282;2023-07-31T15:26:03;1.38;;;1.10;;
18905;SDS011;9585;51.018;4.282;2023-07-31T15:28:32;1.90;;;1.38;;
18905;SDS011;9585;51.018;4.282;2023-07-31T15:31:00;2.33;;;1.33;;
18905;SDS011;9585;51.018;4.282;2023-07-31T15:33:28;1.50;;;1.00;;